Alvaton, KY (42122)

7:32 PM CDT on October 31, 2014 (GMT -0500)
Plano | Change Station
CLOSE
Current Station
Personal Weather Station
Location: Bowling Green, KY
Elevation: 630 ft
Nearby Weather Stations
Active Advisory: Freeze Warning

Elev 630 ft 36.87 °N, 86.41 °W | Updated 4 seconds ago

Partly Cloudy
Partly Cloudy
39.4 °F
Feels Like 32 °F
N
12.0
Wind Variable Wind from NNW
Gusts 20.0 mph

Today
High -- | Low -- °F
--% Chance of Precip.
Yesterday
High -- | Low -- °F
Precip. -- in
7:08 AM 5:49 PM
First Quarter, 60% visible
Pressure 30.12 in
Visibility 10.0 miles
Clouds Mostly Cloudy 4400 ft
Overcast 6000 ft
Windchill 32 °F
Dew Point 36 °F
Humidity 89%
Rainfall 0.02 in
Snow Depth Not available.
UV 0 out of 12
Pollen .30 out of 12
Air Quality Not available.
Flu Activity Not available.
METAR KBWG 312353Z AUTO 32007G15KT 10SM BKN044 OVC060 06/M02 A3012 RMK AO2 SLP200 60001 T00611022 10106 20050 51024

More Conditions Fewer Conditions

Pressure 30.12 in
Visibility 10.0 miles
Clouds Mostly Cloudy 4400 ft
Overcast 6000 ft
Windchill 32 °F
Dew Point 36 °F
Humidity 89%
Rainfall 0.02 in
Snow Depth Not available.
UV 0 out of 12
Pollen .30 out of 12
Air Quality Not available.
Flu Activity Not available.
METAR KBWG 312353Z AUTO 32007G15KT 10SM BKN044 OVC060 06/M02 A3012 RMK AO2 SLP200 60001 T00611022 10106 20050 51024

More Conditions Fewer Conditions

10-Day Weather Forecast

Almanac

Astronomy

Oct. 31, 2014 Rise Set
Actual Time
Civil Twilight
Nautical Twilight
Astronomical Twilight
Moon
Length of Visible Light
Length of Day
Tomorrow will be .
, % of the Moon is Illuminated

Today's Extremes

State Highs State Lows

Community

WunderPhotos

Upload Photos

1,766,794 photos uploaded!

WunderBlogs® & News

Nearby

Air Quality

  Air Quality AQ Index Pollutant
Not available.

Snow Depth

Station Depth Elevation

Earthquake Activity

City Distance Mag. Time & Date
Minimum magnitude displayed is 2.5.

Coastal Water Temperatures

Place Temperature

Nearby Weather Stations